sensor_id;sensor_type;location;lat;lon;timestamp;pressure;altitude;pressure_sealevel;temperature;humidity
71126;BME280;58785;55.566;38.058;2023-05-20T00:00:03;101301.75;;;10.60;63.53
71126;BME280;58785;55.566;38.058;2023-05-20T00:02:30;101294.84;;;10.69;63.23
71126;BME280;58785;55.566;38.058;2023-05-20T00:04:55;101285.03;;;10.69;63.36
71126;BME280;58785;55.566;38.058;2023-05-20T00:07:21;101289.41;;;10.81;62.69
71126;BME280;58785;55.566;38.058;2023-05-20T00:09:47;101290.75;;;10.87;62.44
71126;BME280;58785;55.566;38.058;2023-05-20T00:12:13;101281.19;;;10.96;62.41
71126;BME280;58785;55.566;38.058;2023-05-20T00:14:38;101277.78;;;10.93;62.34
71126;BME280;58785;55.566;38.058;2023-05-20T00:17:04;101278.00;;;11.02;61.77
71126;BME280;58785;55.566;38.058;2023-05-20T00:19:30;101278.13;;;11.11;62.20
71126;BME280;58785;55.566;38.058;2023-05-20T00:21:56;101277.91;;;11.14;61.61
71126;BME280;58785;55.566;38.058;2023-05-20T00:24:23;101282.00;;;11.18;61.72
71126;BME280;58785;55.566;38.058;2023-05-20T00:26:48;101273.03;;;11.19;61.85
71126;BME280;58785;55.566;38.058;2023-05-20T00:29:14;101279.59;;;11.27;60.73
71126;BME280;58785;55.566;38.058;2023-05-20T00:31:40;101286.13;;;11.34;60.65
71126;BME280;58785;55.566;38.058;2023-05-20T00:34:07;101272.88;;;11.32;60.61
71126;BME280;58785;55.566;38.058;2023-05-20T00:36:34;101288.16;;;11.41;60.61
71126;BME280;58785;55.566;38.058;2023-05-20T00:38:59;101278.31;;;11.42;61.02
71126;BME280;58785;55.566;38.058;2023-05-20T00:41:25;101284.16;;;11.47;61.31
71126;BME280;58785;55.566;38.058;2023-05-20T00:43:54;101279.66;;;11.47;60.83
71126;BME280;58785;55.566;38.058;2023-05-20T00:46:22;101281.38;;;11.48;60.56
71126;BME280;58785;55.566;38.058;2023-05-20T00:48:48;101273.34;;;11.48;60.67
71126;BME280;58785;55.566;38.058;2023-05-20T00:51:14;101273.34;;;11.48;61.13
71126;BME280;58785;55.566;38.058;2023-05-20T00:53:40;101279.28;;;11.52;60.96
71126;BME280;58785;55.566;38.058;2023-05-20T00:56:07;101281.22;;;11.50;60.20
71126;BME280;58785;55.566;38.058;2023-05-20T00:58:34;101282.84;;;11.52;60.53
71126;BME280;58785;55.566;38.058;2023-05-20T01:01:01;101277.94;;;11.58;60.44
71126;BME280;58785;55.566;38.058;2023-05-20T01:03:28;101274.03;;;11.62;60.42
71126;BME280;58785;55.566;38.058;2023-05-20T01:05:54;101265.78;;;11.65;60.32
71126;BME280;58785;55.566;38.058;2023-05-20T01:08:21;101271.38;;;11.73;60.63
71126;BME280;58785;55.566;38.058;2023-05-20T01:10:53;101277.66;;;11.72;60.68
71126;BME280;58785;55.566;38.058;2023-05-20T01:13:25;101279.03;;;11.66;60.68
71126;BME280;58785;55.566;38.058;2023-05-20T01:15:54;101274.66;;;11.65;60.31
71126;BME280;58785;55.566;38.058;2023-05-20T01:18:22;101281.09;;;11.63;60.64
71126;BME280;58785;55.566;38.058;2023-05-20T01:20:52;101269.09;;;11.57;60.87
71126;BME280;58785;55.566;38.058;2023-05-20T01:23:18;101274.66;;;11.65;60.36
71126;BME280;58785;55.566;38.058;2023-05-20T01:25:44;101268.47;;;11.65;60.34
71126;BME280;58785;55.566;38.058;2023-05-20T01:28:10;101273.44;;;11.58;60.93
71126;BME280;58785;55.566;38.058;2023-05-20T01:30:46;101268.97;;;11.59;59.92
71126;BME280;58785;55.566;38.058;2023-05-20T01:33:14;101283.03;;;11.61;60.68
71126;BME280;58785;55.566;38.058;2023-05-20T01:35:41;101272.47;;;11.59;61.03
71126;BME280;58785;55.566;38.058;2023-05-20T01:38:07;101280.97;;;11.64;60.02
71126;BME280;58785;55.566;38.058;2023-05-20T01:40:33;101267.63;;;11.64;60.34
71126;BME280;58785;55.566;38.058;2023-05-20T01:43:01;101279.75;;;11.68;60.79
71126;BME280;58785;55.566;38.058;2023-05-20T01:45:27;101280.72;;;11.67;61.18
71126;BME280;58785;55.566;38.058;2023-05-20T01:47:53;101278.03;;;11.67;60.50
71126;BME280;58785;55.566;38.058;2023-05-20T01:50:19;101282.53;;;11.67;60.66
71126;BME280;58785;55.566;38.058;2023-05-20T01:52:44;101278.03;;;11.67;60.50
71126;BME280;58785;55.566;38.058;2023-05-20T01:55:10;101283.13;;;11.70;61.55
71126;BME280;58785;55.566;38.058;2023-05-20T01:57:36;101277.31;;;11.65;60.83
71126;BME280;58785;55.566;38.058;2023-05-20T02:00:01;101279.88;;;11.67;60.96
71126;BME280;58785;55.566;38.058;2023-05-20T02:02:31;101289.22;;;11.72;60.88
71126;BME280;58785;55.566;38.058;2023-05-20T02:04:57;101278.88;;;11.68;61.17
71126;BME280;58785;55.566;38.058;2023-05-20T02:07:23;101293.59;;;11.73;61.01
71126;BME280;58785;55.566;38.058;2023-05-20T02:09:48;101288.97;;;11.75;61.46
71126;BME280;58785;55.566;38.058;2023-05-20T02:12:14;101287.41;;;11.73;61.21
71126;BME280;58785;55.566;38.058;2023-05-20T02:14:44;101274.88;;;11.73;61.38
71126;BME280;58785;55.566;38.058;2023-05-20T02:17:10;101276.84;;;11.83;61.09
71126;BME280;58785;55.566;38.058;2023-05-20T02:19:36;101272.66;;;11.78;61.54
71126;BME280;58785;55.566;38.058;2023-05-20T02:22:02;101273.91;;;11.74;61.58
71126;BME280;58785;55.566;38.058;2023-05-20T02:24:28;101272.22;;;11.73;61.65
71126;BME280;58785;55.566;38.058;2023-05-20T02:26:53;101274.63;;;11.76;61.79
71126;BME280;58785;55.566;38.058;2023-05-20T02:29:21;101272.22;;;11.73;61.12
71126;BME280;58785;55.566;38.058;2023-05-20T02:31:47;101277.91;;;11.80;61.64
71126;BME280;58785;55.566;38.058;2023-05-20T02:34:15;101275.22;;;11.80;61.76
71126;BME280;58785;55.566;38.058;2023-05-20T02:36:41;101271.47;;;11.83;61.73
71126;BME280;58785;55.566;38.058;2023-05-20T02:39:07;101267.22;;;11.80;61.94
71126;BME280;58785;55.566;38.058;2023-05-20T02:41:32;101266.38;;;11.79;62.13
71126;BME280;58785;55.566;38.058;2023-05-20T02:43:58;101277.41;;;11.86;61.24
71126;BME280;58785;55.566;38.058;2023-05-20T02:46:23;101281.78;;;11.87;62.35
71126;BME280;58785;55.566;38.058;2023-05-20T02:48:49;101276.16;;;11.90;61.95
71126;BME280;58785;55.566;38.058;2023-05-20T02:51:15;101282.00;;;11.95;61.88
71126;BME280;58785;55.566;38.058;2023-05-20T02:53:40;101277.50;;;11.96;62.10
71126;BME280;58785;55.566;38.058;2023-05-20T02:56:06;101279.19;;;11.97;62.07
71126;BME280;58785;55.566;38.058;2023-05-20T02:58:33;101288.31;;;11.94;62.28
71126;BME280;58785;55.566;38.058;2023-05-20T03:01:00;101289.88;;;11.97;61.97
71126;BME280;58785;55.566;38.058;2023-05-20T03:03:26;101277.88;;;11.91;62.11
71126;BME280;58785;55.566;38.058;2023-05-20T03:05:52;101285.13;;;12.00;62.47
71126;BME280;58785;55.566;38.058;2023-05-20T03:08:21;101296.28;;;12.05;62.41
71126;BME280;58785;55.566;38.058;2023-05-20T03:10:47;101293.22;;;12.10;62.84
71126;BME280;58785;55.566;38.058;2023-05-20T03:13:13;101287.44;;;12.05;62.44
71126;BME280;58785;55.566;38.058;2023-05-20T03:15:40;101291.94;;;12.04;62.62
71126;BME280;58785;55.566;38.058;2023-05-20T03:18:07;101294.69;;;12.14;62.98
71126;BME280;58785;55.566;38.058;2023-05-20T03:20:34;101295.00;;;12.62;61.58
71126;BME280;58785;55.566;38.058;2023-05-20T03:23:03;101290.00;;;13.00;61.07
71126;BME280;58785;55.566;38.058;2023-05-20T03:25:29;101285.84;;;13.16;60.85
71126;BME280;58785;55.566;38.058;2023-05-20T03:27:55;101290.28;;;13.27;60.56
71126;BME280;58785;55.566;38.058;2023-05-20T03:30:22;101291.69;;;13.31;60.27
71126;BME280;58785;55.566;38.058;2023-05-20T03:32:48;101290.09;;;13.19;60.62
71126;BME280;58785;55.566;38.058;2023-05-20T03:35:14;101289.00;;;13.01;60.80
71126;BME280;58785;55.566;38.058;2023-05-20T03:37:40;101286.69;;;12.86;61.55
71126;BME280;58785;55.566;38.058;2023-05-20T03:40:07;101278.75;;;12.75;61.42
71126;BME280;58785;55.566;38.058;2023-05-20T03:42:37;101294.09;;;12.73;61.80
71126;BME280;58785;55.566;38.058;2023-05-20T03:45:03;101284.25;;;12.74;62.24
71126;BME280;58785;55.566;38.058;2023-05-20T03:47:32;101276.91;;;12.76;61.52
71126;BME280;58785;55.566;38.058;2023-05-20T03:49:57;101282.31;;;12.85;61.95
71126;BME280;58785;55.566;38.058;2023-05-20T03:52:23;101285.06;;;12.95;61.42
71126;BME280;58785;55.566;38.058;2023-05-20T03:54:48;101289.19;;;13.09;61.31
71126;BME280;58785;55.566;38.058;2023-05-20T03:57:14;101284.28;;;13.14;60.92
71126;BME280;58785;55.566;38.058;2023-05-20T03:59:40;101274.41;;;13.14;61.18
71126;BME280;58785;55.566;38.058;2023-05-20T04:02:06;101291.78;;;13.20;60.94
71126;BME280;58785;55.566;38.058;2023-05-20T04:04:31;101281.13;;;13.30;60.81
71126;BME280;58785;55.566;38.058;2023-05-20T04:06:58;101281.44;;;13.36;60.85
71126;BME280;58785;55.566;38.058;2023-05-20T04:09:27;101278.88;;;13.35;61.08
71126;BME280;58785;55.566;38.058;2023-05-20T04:11:53;101281.16;;;13.39;60.91
71126;BME280;58785;55.566;38.058;2023-05-20T04:14:19;101274.97;;;13.48;60.30
71126;BME280;58785;55.566;38.058;2023-05-20T04:16:45;101274.28;;;13.56;60.33
71126;BME280;58785;55.566;38.058;2023-05-20T04:19:11;101266.28;;;13.75;59.96
71126;BME280;58785;55.566;38.058;2023-05-20T04:21:37;101267.28;;;13.84;59.99
71126;BME280;58785;55.566;38.058;2023-05-20T04:24:03;101273.50;;;14.04;59.70
71126;BME280;58785;55.566;38.058;2023-05-20T04:26:29;101270.06;;;14.21;59.25
71126;BME280;58785;55.566;38.058;2023-05-20T04:28:55;101276.13;;;14.43;59.12
71126;BME280;58785;55.566;38.058;2023-05-20T04:31:23;101275.72;;;14.37;58.95
71126;BME280;58785;55.566;38.058;2023-05-20T04:33:52;101275.16;;;14.24;58.95
71126;BME280;58785;55.566;38.058;2023-05-20T04:36:18;101269.13;;;14.03;59.42
71126;BME280;58785;55.566;38.058;2023-05-20T04:38:43;101276.44;;;14.10;59.44
71126;BME280;58785;55.566;38.058;2023-05-20T04:41:09;101266.00;;;14.17;59.09
71126;BME280;58785;55.566;38.058;2023-05-20T04:43:35;101281.09;;;14.28;59.24
71126;BME280;58785;55.566;38.058;2023-05-20T04:46:03;101276.72;;;14.27;59.09
71126;BME280;58785;55.566;38.058;2023-05-20T04:48:31;101282.47;;;14.42;58.70
71126;BME280;58785;55.566;38.058;2023-05-20T04:50:57;101275.03;;;14.45;58.87
71126;BME280;58785;55.566;38.058;2023-05-20T04:53:23;101277.56;;;14.47;58.69
71126;BME280;58785;55.566;38.058;2023-05-20T04:55:49;101287.59;;;14.54;58.48
71126;BME280;58785;55.566;38.058;2023-05-20T04:58:19;101279.63;;;14.62;58.58
71126;BME280;58785;55.566;38.058;2023-05-20T05:00:49;101276.22;;;14.80;58.74
71126;BME280;58785;55.566;38.058;2023-05-20T05:03:15;101273.44;;;14.99;57.80
71126;BME280;58785;55.566;38.058;2023-05-20T05:05:42;101282.91;;;15.31;56.93
71126;BME280;58785;55.566;38.058;2023-05-20T05:08:08;101283.28;;;15.45;56.85
71126;BME280;58785;55.566;38.058;2023-05-20T05:10:34;101272.16;;;15.58;56.37
71126;BME280;58785;55.566;38.058;2023-05-20T05:13:01;101274.53;;;15.89;55.85
71126;BME280;58785;55.566;38.058;2023-05-20T05:15:27;101276.59;;;15.95;55.88
71126;BME280;58785;55.566;38.058;2023-05-20T05:17:53;101277.97;;;15.63;55.98
71126;BME280;58785;55.566;38.058;2023-05-20T05:20:19;101268.53;;;15.49;56.85
71126;BME280;58785;55.566;38.058;2023-05-20T05:22:45;101261.22;;;15.42;56.70
71126;BME280;58785;55.566;38.058;2023-05-20T05:25:11;101261.22;;;15.42;56.99
71126;BME280;58785;55.566;38.058;2023-05-20T05:27:38;101261.00;;;15.53;56.84
71126;BME280;58785;55.566;38.058;2023-05-20T05:30:05;101269.78;;;15.55;56.95
71126;BME280;58785;55.566;38.058;2023-05-20T05:32:32;101256.63;;;15.52;56.98
71126;BME280;58785;55.566;38.058;2023-05-20T05:34:58;101252.56;;;15.48;56.76
71126;BME280;58785;55.566;38.058;2023-05-20T05:37:24;101266.69;;;15.50;56.46
71126;BME280;58785;55.566;38.058;2023-05-20T05:39:50;101249.63;;;15.41;56.37
71126;BME280;58785;55.566;38.058;2023-05-20T05:42:15;101255.63;;;15.35;56.48
71126;BME280;58785;55.566;38.058;2023-05-20T05:44:41;101256.50;;;15.53;56.77
71126;BME280;58785;55.566;38.058;2023-05-20T05:47:07;101258.28;;;15.63;56.01
71126;BME280;58785;55.566;38.058;2023-05-20T05:49:33;101258.69;;;15.86;56.30
71126;BME280;58785;55.566;38.058;2023-05-20T05:51:59;101253.94;;;15.97;55.49
71126;BME280;58785;55.566;38.058;2023-05-20T05:54:25;101262.69;;;15.99;55.35
71126;BME280;58785;55.566;38.058;2023-05-20T05:56:51;101262.69;;;15.99;55.75
71126;BME280;58785;55.566;38.058;2023-05-20T05:59:18;101264.00;;;15.77;56.26
71126;BME280;58785;55.566;38.058;2023-05-20T06:01:44;101262.63;;;15.73;56.04
71126;BME280;58785;55.566;38.058;2023-05-20T06:04:10;101263.59;;;15.72;55.84
71126;BME280;58785;55.566;38.058;2023-05-20T06:06:36;101265.44;;;15.72;55.98
71126;BME280;58785;55.566;38.058;2023-05-20T06:09:02;101260.31;;;15.78;56.17
71126;BME280;58785;55.566;38.058;2023-05-20T06:11:28;101262.06;;;15.88;55.46
71126;BME280;58785;55.566;38.058;2023-05-20T06:18:02;101264.22;;;16.02;55.80
71126;BME280;58785;55.566;38.058;2023-05-20T06:20:28;101270.16;;;16.05;55.53
71126;BME280;58785;55.566;38.058;2023-05-20T06:22:54;101277.22;;;16.24;55.36
71126;BME280;58785;55.566;38.058;2023-05-20T06:25:19;101269.97;;;16.25;55.14
71126;BME280;58785;55.566;38.058;2023-05-20T06:27:47;101265.63;;;16.32;55.27
71126;BME280;58785;55.566;38.058;2023-05-20T06:30:13;101256.88;;;16.30;55.23
71126;BME280;58785;55.566;38.058;2023-05-20T06:32:39;101262.91;;;16.50;55.26
71126;BME280;58785;55.566;38.058;2023-05-20T06:35:05;101263.16;;;16.56;54.87
71126;BME280;58785;55.566;38.058;2023-05-20T06:37:30;101261.63;;;16.54;54.67
71126;BME280;58785;55.566;38.058;2023-05-20T06:39:56;101271.78;;;16.42;54.93
71126;BME280;58785;55.566;38.058;2023-05-20T06:42:22;101267.56;;;16.39;55.10
71126;BME280;58785;55.566;38.058;2023-05-20T06:44:47;101264.88;;;16.39;55.09
71126;BME280;58785;55.566;38.058;2023-05-20T06:47:15;101245.97;;;16.57;54.43
71126;BME280;58785;55.566;38.058;2023-05-20T06:49:44;101258.19;;;16.70;54.09
71126;BME280;58785;55.566;38.058;2023-05-20T06:52:10;101259.34;;;16.67;54.69
71126;BME280;58785;55.566;38.058;2023-05-20T06:54:39;101269.03;;;16.60;54.41
71126;BME280;58785;55.566;38.058;2023-05-20T06:57:07;101267.28;;;16.51;54.34
71126;BME280;58785;55.566;38.058;2023-05-20T06:59:34;101260.66;;;16.37;54.48
71126;BME280;58785;55.566;38.058;2023-05-20T07:05:40;101259.19;;;16.94;54.22
71126;BME280;58785;55.566;38.058;2023-05-20T07:08:06;101254.53;;;17.05;53.85
71126;BME280;58785;55.566;38.058;2023-05-20T07:10:32;101254.84;;;17.02;53.54
71126;BME280;58785;55.566;38.058;2023-05-20T07:12:59;101260.09;;;17.11;53.28
71126;BME280;58785;55.566;38.058;2023-05-20T07:15:24;101255.72;;;17.10;53.29
71126;BME280;58785;55.566;38.058;2023-05-20T07:17:50;101262.63;;;17.13;53.46
71126;BME280;58785;55.566;38.058;2023-05-20T07:20:16;101256.03;;;17.07;53.02
71126;BME280;58785;55.566;38.058;2023-05-20T07:22:41;101250.50;;;17.09;53.29
71126;BME280;58785;55.566;38.058;2023-05-20T07:25:08;101254.72;;;17.11;52.82
71126;BME280;58785;55.566;38.058;2023-05-20T07:27:35;101242.25;;;17.10;52.58
71126;BME280;58785;55.566;38.058;2023-05-20T07:30:01;101246.63;;;17.11;52.99
71126;BME280;58785;55.566;38.058;2023-05-20T07:32:30;101253.69;;;17.12;52.78
71126;BME280;58785;55.566;38.058;2023-05-20T07:34:55;101242.28;;;17.18;52.67
71126;BME280;58785;55.566;38.058;2023-05-20T07:37:21;101252.19;;;17.10;52.29
71126;BME280;58785;55.566;38.058;2023-05-20T07:39:47;101254.25;;;17.16;52.00
71126;BME280;58785;55.566;38.058;2023-05-20T07:42:12;101252.38;;;17.16;52.36
71126;BME280;58785;55.566;38.058;2023-05-20T07:44:38;101245.19;;;17.33;52.06
71126;BME280;58785;55.566;38.058;2023-05-20T07:47:04;101251.03;;;17.20;51.87
71126;BME280;58785;55.566;38.058;2023-05-20T07:49:30;101241.69;;;16.99;52.29
71126;BME280;58785;55.566;38.058;2023-05-20T07:51:55;101234.13;;;17.02;52.11
71126;BME280;58785;55.566;38.058;2023-05-20T07:54:22;101242.06;;;17.12;51.86
71126;BME280;58785;55.566;38.058;2023-05-20T07:56:47;101242.06;;;17.04;51.79
71126;BME280;58785;55.566;38.058;2023-05-20T07:59:13;101240.94;;;17.14;52.04
71126;BME280;58785;55.566;38.058;2023-05-20T08:01:40;101240.78;;;17.24;51.07
71126;BME280;58785;55.566;38.058;2023-05-20T08:04:06;101233.44;;;17.50;50.56
71126;BME280;58785;55.566;38.058;2023-05-20T08:06:32;101253.44;;;17.74;50.07
71126;BME280;58785;55.566;38.058;2023-05-20T08:08:57;101247.19;;;17.81;48.82
71126;BME280;58785;55.566;38.058;2023-05-20T08:11:23;101241.31;;;17.86;48.73
71126;BME280;58785;55.566;38.058;2023-05-20T08:13:49;101240.97;;;17.97;48.67
71126;BME280;58785;55.566;38.058;2023-05-20T08:16:15;101243.50;;;17.99;48.43
71126;BME280;58785;55.566;38.058;2023-05-20T08:18:40;101233.38;;;18.09;48.33
71126;BME280;58785;55.566;38.058;2023-05-20T08:21:06;101234.03;;;18.19;48.27
71126;BME280;58785;55.566;38.058;2023-05-20T08:23:33;101225.78;;;18.37;47.85
71126;BME280;58785;55.566;38.058;2023-05-20T08:25:59;101225.72;;;18.70;47.33
71126;BME280;58785;55.566;38.058;2023-05-20T08:28:27;101213.03;;;18.78;47.07
71126;BME280;58785;55.566;38.058;2023-05-20T08:30:53;101222.44;;;18.90;46.68
71126;BME280;58785;55.566;38.058;2023-05-20T08:33:19;101212.88;;;18.80;46.87
71126;BME280;58785;55.566;38.058;2023-05-20T08:35:49;101220.66;;;18.75;46.93
71126;BME280;58785;55.566;38.058;2023-05-20T08:38:14;101220.50;;;18.68;46.63
71126;BME280;58785;55.566;38.058;2023-05-20T08:40:40;101224.03;;;18.60;46.78
71126;BME280;58785;55.566;38.058;2023-05-20T08:43:06;101229.31;;;18.37;46.37
71126;BME280;58785;55.566;38.058;2023-05-20T08:45:33;101226.13;;;18.26;46.46
71126;BME280;58785;55.566;38.058;2023-05-20T08:48:00;101214.97;;;18.37;46.41
71126;BME280;58785;55.566;38.058;2023-05-20T08:50:25;101224.94;;;18.36;46.24
71126;BME280;58785;55.566;38.058;2023-05-20T08:52:52;101222.94;;;18.14;46.12
71126;BME280;58785;55.566;38.058;2023-05-20T08:55:24;101224.78;;;17.97;46.27
71126;BME280;58785;55.566;38.058;2023-05-20T08:57:52;101235.16;;;17.68;46.33
71126;BME280;58785;55.566;38.058;2023-05-20T09:00:20;101236.81;;;17.52;46.37
71126;BME280;58785;55.566;38.058;2023-05-20T09:02:48;101223.00;;;17.47;46.90
71126;BME280;58785;55.566;38.058;2023-05-20T09:05:14;101229.94;;;17.66;47.08
71126;BME280;58785;55.566;38.058;2023-05-20T09:07:40;101224.75;;;17.89;46.90
71126;BME280;58785;55.566;38.058;2023-05-20T09:10:08;101230.34;;;17.96;46.66
71126;BME280;58785;55.566;38.058;2023-05-20T09:12:34;101217.84;;;18.03;46.31
71126;BME280;58785;55.566;38.058;2023-05-20T09:15:00;101216.50;;;17.99;46.62
71126;BME280;58785;55.566;38.058;2023-05-20T09:17:26;101222.56;;;17.93;46.59
71126;BME280;58785;55.566;38.058;2023-05-20T09:19:53;101212.97;;;17.90;46.93
71126;BME280;58785;55.566;38.058;2023-05-20T09:22:26;101230.97;;;17.65;46.57
71126;BME280;58785;55.566;38.058;2023-05-20T09:24:52;101218.91;;;17.43;47.44
71126;BME280;58785;55.566;38.058;2023-05-20T09:27:19;101244.06;;;17.44;47.90
71126;BME280;58785;55.566;38.058;2023-05-20T09:29:48;101228.03;;;17.42;47.97
71126;BME280;58785;55.566;38.058;2023-05-20T09:32:14;101244.06;;;17.44;47.80
71126;BME280;58785;55.566;38.058;2023-05-20T09:34:41;101239.16;;;17.39;47.83
71126;BME280;58785;55.566;38.058;2023-05-20T09:37:08;101241.78;;;17.23;47.57
71126;BME280;58785;55.566;38.058;2023-05-20T09:39:54;101241.94;;;17.21;47.88
71126;BME280;58785;55.566;38.058;2023-05-20T09:42:34;101241.97;;;17.30;47.80
71126;BME280;58785;55.566;38.058;2023-05-20T09:45:02;101243.00;;;17.29;48.22
71126;BME280;58785;55.566;38.058;2023-05-20T09:47:31;101250.00;;;17.13;47.89
71126;BME280;58785;55.566;38.058;2023-05-20T09:49:58;101237.84;;;17.09;48.26
71126;BME280;58785;55.566;38.058;2023-05-20T09:52:25;101246.16;;;17.16;48.19
71126;BME280;58785;55.566;38.058;2023-05-20T09:58:34;101239.50;;;17.02;48.85
71126;BME280;58785;55.566;38.058;2023-05-20T10:01:00;101237.34;;;17.06;48.78
71126;BME280;58785;55.566;38.058;2023-05-20T10:03:26;101248.81;;;17.08;48.61
71126;BME280;58785;55.566;38.058;2023-05-20T10:17:18;101270.19;;;16.75;49.92
71126;BME280;58785;55.566;38.058;2023-05-20T10:19:45;101259.72;;;16.72;50.28
71126;BME280;58785;55.566;38.058;2023-05-20T10:22:11;101268.50;;;16.74;50.54
71126;BME280;58785;55.566;38.058;2023-05-20T10:24:40;101278.44;;;16.74;51.17
71126;BME280;58785;55.566;38.058;2023-05-20T10:27:10;101283.91;;;16.64;52.01
71126;BME280;58785;55.566;38.058;2023-05-20T10:29:49;101296.28;;;16.57;51.94
71126;BME280;58785;55.566;38.058;2023-05-20T10:32:25;101297.25;;;16.48;52.73
71126;BME280;58785;55.566;38.058;2023-05-20T10:34:51;101285.63;;;16.47;52.89
71126;BME280;58785;55.566;38.058;2023-05-20T10:37:28;101285.63;;;16.47;53.44
71126;BME280;58785;55.566;38.058;2023-05-20T10:40:11;101283.16;;;16.54;53.55
71126;BME280;58785;55.566;38.058;2023-05-20T10:42:38;101275.75;;;16.56;53.00
71126;BME280;58785;55.566;38.058;2023-05-20T10:45:05;101274.88;;;16.73;52.83
71126;BME280;58785;55.566;38.058;2023-05-20T10:47:31;101274.47;;;16.86;52.23
71126;BME280;58785;55.566;38.058;2023-05-20T10:49:57;101265.59;;;17.02;51.87
71126;BME280;58785;55.566;38.058;2023-05-20T10:52:24;101273.06;;;17.08;51.52
71126;BME280;58785;55.566;38.058;2023-05-20T10:54:54;101278.06;;;17.03;51.02
71126;BME280;58785;55.566;38.058;2023-05-20T10:57:21;101272.84;;;17.01;51.44
71126;BME280;58785;55.566;38.058;2023-05-20T10:59:48;101281.44;;;16.97;51.28
71126;BME280;58785;55.566;38.058;2023-05-20T11:02:18;101273.13;;;16.90;51.34
71126;BME280;58785;55.566;38.058;2023-05-20T11:04:47;101273.69;;;16.93;51.46
71126;BME280;58785;55.566;38.058;2023-05-20T11:07:27;101276.38;;;16.93;51.51
71126;BME280;58785;55.566;38.058;2023-05-20T11:09:59;101275.31;;;16.86;51.83
71126;BME280;58785;55.566;38.058;2023-05-20T11:12:26;101273.28;;;16.88;51.65
71126;BME280;58785;55.566;38.058;2023-05-20T11:14:53;101269.72;;;16.80;51.37
71126;BME280;58785;55.566;38.058;2023-05-20T11:17:20;101261.28;;;16.75;51.63
71126;BME280;58785;55.566;38.058;2023-05-20T11:19:47;101275.25;;;16.78;51.61
71126;BME280;58785;55.566;38.058;2023-05-20T11:22:13;101278.16;;;16.85;51.65
71126;BME280;58785;55.566;38.058;2023-05-20T11:24:39;101267.06;;;16.88;51.33
71126;BME280;58785;55.566;38.058;2023-05-20T11:27:05;101278.34;;;16.91;51.40
71126;BME280;58785;55.566;38.058;2023-05-20T11:29:31;101276.50;;;16.92;51.70
71126;BME280;58785;55.566;38.058;2023-05-20T11:31:59;101275.38;;;16.94;51.73
71126;BME280;58785;55.566;38.058;2023-05-20T11:34:25;101284.56;;;16.84;50.87
71126;BME280;58785;55.566;38.058;2023-05-20T11:36:58;101289.81;;;16.67;51.06
71126;BME280;58785;55.566;38.058;2023-05-20T11:39:24;101291.66;;;16.67;51.15
71126;BME280;58785;55.566;38.058;2023-05-20T11:41:52;101288.66;;;16.70;50.86
71126;BME280;58785;55.566;38.058;2023-05-20T11:44:21;101281.28;;;16.72;51.29
71126;BME280;58785;55.566;38.058;2023-05-20T11:46:47;101273.19;;;16.72;50.84
71126;BME280;58785;55.566;38.058;2023-05-20T11:52:58;101286.53;;;16.74;50.84
71126;BME280;58785;55.566;38.058;2023-05-20T11:55:25;101275.19;;;16.70;50.63
71126;BME280;58785;55.566;38.058;2023-05-20T11:57:51;101297.31;;;16.74;50.57
71126;BME280;58785;55.566;38.058;2023-05-20T12:00:18;101277.44;;;16.75;50.60
71126;BME280;58785;55.566;38.058;2023-05-20T12:02:44;101280.81;;;16.77;50.59
71126;BME280;58785;55.566;38.058;2023-05-20T12:05:10;101271.88;;;16.76;50.38
71126;BME280;58785;55.566;38.058;2023-05-20T12:07:36;101272.34;;;16.72;50.23
71126;BME280;58785;55.566;38.058;2023-05-20T12:10:03;101275.94;;;16.80;50.21
71126;BME280;58785;55.566;38.058;2023-05-20T12:12:30;101276.94;;;16.79;49.84
71126;BME280;58785;55.566;38.058;2023-05-20T12:14:56;101264.81;;;16.75;49.81
71126;BME280;58785;55.566;38.058;2023-05-20T12:17:21;101266.66;;;16.75;49.29
71126;BME280;58785;55.566;38.058;2023-05-20T12:19:47;101252.38;;;16.82;49.60
71126;BME280;58785;55.566;38.058;2023-05-20T12:22:13;101263.16;;;16.82;48.92
71126;BME280;58785;55.566;38.058;2023-05-20T12:24:39;101254.34;;;16.72;48.22
71126;BME280;58785;55.566;38.058;2023-05-20T12:27:05;101265.72;;;16.84;48.05
71126;BME280;58785;55.566;38.058;2023-05-20T12:29:32;101264.84;;;16.83;47.89
71126;BME280;58785;55.566;38.058;2023-05-20T12:31:59;101270.75;;;16.87;47.31
71126;BME280;58785;55.566;38.058;2023-05-20T12:34:25;101263.84;;;16.84;46.77
71126;BME280;58785;55.566;38.058;2023-05-20T12:36:50;101259.50;;;16.91;47.00
71126;BME280;58785;55.566;38.058;2023-05-20T12:39:17;101270.84;;;17.03;46.99
71126;BME280;58785;55.566;38.058;2023-05-20T12:41:43;101268.38;;;17.18;46.57
71126;BME280;58785;55.566;38.058;2023-05-20T12:44:09;101254.41;;;17.14;46.43
71126;BME280;58785;55.566;38.058;2023-05-20T12:46:38;101260.97;;;17.20;46.53
71126;BME280;58785;55.566;38.058;2023-05-20T12:49:04;101256.66;;;17.35;46.54
71126;BME280;58785;55.566;38.058;2023-05-20T12:51:30;101254.94;;;17.26;45.30
71126;BME280;58785;55.566;38.058;2023-05-20T12:53:56;101251.25;;;17.27;44.81
71126;BME280;58785;55.566;38.058;2023-05-20T12:56:21;101240.47;;;17.27;44.40
71126;BME280;58785;55.566;38.058;2023-05-20T12:58:48;101261.56;;;17.40;44.05
71126;BME280;58785;55.566;38.058;2023-05-20T13:01:14;101249.25;;;17.37;43.79
71126;BME280;58785;55.566;38.058;2023-05-20T13:03:39;101249.97;;;17.47;44.03